Terminal Aerodrome Forecast
Issued by NWS

Home | Current Version | Previous Version | Text Only | Print | Product List | Glossary On
Versions: 1 2 3 4 5 6 7 8 9 10 11 12
804
FTUS45 KABQ 250527
TAFGUP
TAF
KGUP 250527Z 2506/2606 22008KT P6SM SKC
     FM250900 VRB06KT P6SM SKC
     FM251700 23015G25KT P6SM SCT250
     FM252000 23020G30KT P6SM SCT090 SCT250=

USA.gov is the U.S. government's official web portal to all federal, state and local government web resources and services.